createdAt,value
2022-10-20T00:01:20.547Z,14.23
2022-10-20T00:03:48.840Z,14.53
2022-10-20T00:06:15.574Z,12.97
2022-10-20T00:08:43.505Z,13.10
2022-10-20T00:11:12.246Z,12.07
2022-10-20T00:13:40.442Z,12.30
2022-10-20T00:16:07.661Z,11.20
2022-10-20T00:18:34.714Z,11.63
2022-10-20T00:21:08.806Z,12.27
2022-10-20T00:23:36.565Z,11.23
2022-10-20T00:26:09.061Z,11.03
2022-10-20T00:28:35.892Z,13.17
2022-10-20T00:31:03.997Z,13.40
2022-10-20T00:33:30.836Z,14.27
2022-10-20T00:36:06.348Z,13.67
2022-10-20T00:38:34.213Z,13.90
2022-10-20T00:41:03.234Z,15.50
2022-10-20T00:43:58.866Z,13.70
2022-10-20T00:46:32.534Z,13.53
2022-10-20T00:49:08.806Z,12.27
2022-10-20T00:51:35.621Z,13.20
2022-10-20T00:54:08.974Z,11.93
2022-10-20T00:56:40.525Z,12.23
2022-10-20T00:59:09.308Z,12.07
2022-10-20T01:01:37.847Z,13.67
2022-10-20T01:04:05.010Z,12.83
2022-10-20T01:06:31.884Z,12.70
2022-10-20T01:08:58.906Z,12.97
2022-10-20T01:11:45.107Z,12.17
2022-10-20T01:14:20.667Z,10.90
2022-10-20T01:16:59.448Z,10.63
2022-10-20T01:20:04.201Z,10.90
2022-10-20T01:23:03.292Z,11.63
2022-10-20T01:25:35.749Z,11.37
2022-10-20T01:28:16.968Z,11.80
2022-10-20T01:30:53.319Z,11.57
2022-10-20T01:33:40.550Z,10.80
2022-10-20T01:36:28.555Z,10.87
2022-10-20T01:39:07.412Z,10.83
2022-10-20T01:41:42.448Z,11.13
2022-10-20T01:44:12.133Z,11.00
2022-10-20T01:46:42.118Z,11.60
2022-10-20T01:49:09.641Z,11.10
2022-10-20T01:51:36.580Z,12.97
2022-10-20T01:54:03.603Z,11.73
2022-10-20T01:56:56.026Z,12.10
2022-10-20T01:59:44.353Z,11.80
2022-10-20T02:02:33.283Z,12.40
2022-10-20T02:05:23.437Z,11.67
2022-10-20T02:07:50.940Z,12.80
2022-10-20T02:10:24.198Z,12.30
2022-10-20T02:12:56.729Z,12.27
2022-10-20T02:15:29.524Z,13.17
2022-10-20T02:18:01.477Z,12.67
2022-10-20T02:20:31.352Z,14.20
2022-10-20T02:23:00.123Z,12.67
2022-10-20T02:25:29.683Z,12.77
2022-10-20T02:30:31.342Z,13.17
2022-10-20T02:32:58.116Z,11.97
2022-10-20T02:35:31.578Z,12.17
2022-10-20T02:37:59.206Z,11.37
2022-10-20T02:40:26.954Z,11.40
2022-10-20T02:42:53.956Z,11.67
2022-10-20T02:45:20.829Z,11.23
2022-10-20T02:47:47.701Z,11.70
2022-10-20T02:50:14.568Z,11.73
2022-10-20T02:52:41.370Z,11.67
2022-10-20T02:55:08.474Z,11.33
2022-10-20T02:57:35.509Z,11.77
2022-10-20T03:00:02.564Z,12.27
2022-10-20T03:02:29.380Z,11.97
2022-10-20T03:04:56.179Z,11.93
2022-10-20T03:07:22.953Z,11.90
2022-10-20T03:09:49.734Z,12.37
2022-10-20T03:12:16.671Z,12.83
2022-10-20T03:14:43.420Z,12.10
2022-10-20T03:17:10.162Z,12.23
2022-10-20T03:19:36.928Z,13.10
2022-10-20T03:22:03.748Z,13.00
2022-10-20T03:24:30.512Z,14.20
2022-10-20T03:26:57.285Z,13.03
2022-10-20T03:29:24.159Z,13.33
2022-10-20T03:31:50.935Z,14.07
2022-10-20T03:34:17.661Z,12.87
2022-10-20T03:36:44.482Z,14.83
2022-10-20T03:39:11.286Z,13.43
2022-10-20T03:41:38.148Z,14.00
2022-10-20T03:44:05.061Z,14.23
2022-10-20T03:46:31.867Z,15.13
2022-10-20T03:48:58.728Z,13.93
2022-10-20T03:51:25.568Z,14.20
2022-10-20T03:53:52.708Z,15.17
2022-10-20T03:56:21.269Z,14.73
2022-10-20T03:58:48.417Z,15.10
2022-10-20T04:01:22.878Z,15.30
2022-10-20T04:03:49.651Z,15.07
2022-10-20T04:06:16.476Z,15.57
2022-10-20T04:08:43.653Z,15.37
2022-10-20T04:11:10.558Z,15.33
2022-10-20T04:13:37.366Z,15.63
2022-10-20T04:16:04.304Z,14.93
2022-10-20T04:18:31.655Z,15.50
2022-10-20T04:20:58.966Z,15.87
2022-10-20T04:23:25.750Z,15.50
2022-10-20T04:25:52.605Z,16.60
2022-10-20T04:28:21.015Z,17.27
2022-10-20T04:30:49.024Z,16.33
2022-10-20T04:33:16.690Z,16.80
2022-10-20T04:35:43.816Z,16.87
2022-10-20T04:38:10.736Z,17.10
2022-10-20T04:40:37.583Z,17.93
2022-10-20T04:43:04.354Z,16.57
2022-10-20T04:45:31.177Z,16.27
2022-10-20T04:47:57.973Z,15.53
2022-10-20T04:50:24.767Z,16.47
2022-10-20T04:53:07.977Z,17.27
2022-10-20T04:55:35.772Z,16.20
2022-10-20T04:58:03.269Z,17.00
2022-10-20T05:00:30.060Z,16.87
2022-10-20T05:02:57.074Z,17.53
2022-10-20T05:05:23.918Z,18.40
2022-10-20T05:07:50.664Z,17.43
2022-10-20T05:10:19.372Z,16.97
2022-10-20T05:12:46.147Z,17.47
2022-10-20T05:15:12.901Z,18.67
2022-10-20T05:17:39.652Z,17.97
2022-10-20T05:20:06.773Z,19.70
2022-10-20T05:22:33.806Z,18.63
2022-10-20T05:25:12.761Z,18.23
2022-10-20T05:27:47.630Z,19.60
2022-10-20T05:30:14.424Z,19.70
2022-10-20T05:32:41.654Z,19.67
2022-10-20T05:35:08.760Z,18.20
2022-10-20T05:37:35.562Z,19.43
2022-10-20T05:40:03.695Z,18.93
2022-10-20T05:42:30.541Z,18.93
2022-10-20T05:44:57.360Z,20.33
2022-10-20T05:47:24.149Z,18.83
2022-10-20T05:49:50.962Z,18.37
2022-10-20T05:52:17.776Z,19.70
2022-10-20T05:54:44.558Z,20.23
2022-10-20T05:57:11.354Z,18.37
2022-10-20T05:59:38.404Z,20.47
2022-10-20T06:02:05.238Z,18.30
2022-10-20T06:04:32.476Z,18.47
2022-10-20T06:06:59.277Z,19.33
2022-10-20T06:09:26.565Z,18.93
2022-10-20T06:11:53.445Z,19.43
2022-10-20T06:14:22.414Z,18.63
2022-10-20T06:16:53.581Z,18.83
2022-10-20T06:19:20.833Z,19.40
2022-10-20T06:21:49.322Z,19.67
2022-10-20T06:24:17.100Z,18.97
2022-10-20T06:26:45.024Z,19.63
2022-10-20T06:29:15.233Z,19.60
2022-10-20T06:31:50.267Z,19.77
2022-10-20T06:34:19.848Z,19.73
2022-10-20T06:36:47.285Z,19.23
2022-10-20T06:39:17.507Z,19.93
2022-10-20T06:41:48.522Z,19.70
2022-10-20T06:44:20.657Z,19.90
2022-10-20T06:46:47.807Z,19.63
2022-10-20T06:49:15.157Z,19.37
2022-10-20T06:51:41.974Z,19.43
2022-10-20T06:54:09.457Z,18.83
2022-10-20T06:56:37.467Z,18.53
2022-10-20T06:59:04.650Z,18.57
2022-10-20T07:01:33.538Z,17.80
2022-10-20T07:04:03.617Z,17.63
2022-10-20T07:06:33.703Z,16.53
2022-10-20T07:09:04.059Z,18.10
2022-10-20T07:11:31.878Z,16.80
2022-10-20T07:14:00.029Z,17.70
2022-10-20T07:16:30.539Z,16.87
2022-10-20T07:18:57.483Z,17.40
2022-10-20T07:21:30.822Z,16.03
2022-10-20T07:24:01.988Z,16.13
2022-10-20T07:26:31.739Z,16.33
2022-10-20T07:29:00.826Z,16.60
2022-10-20T07:31:32.085Z,16.07
2022-10-20T07:34:13.551Z,16.47
2022-10-20T07:36:47.493Z,15.13
2022-10-20T07:39:14.366Z,14.63
2022-10-20T07:41:44.045Z,14.07
2022-10-20T07:44:11.260Z,14.40
2022-10-20T07:46:38.057Z,13.97
2022-10-20T07:49:39.182Z,14.30
2022-10-20T07:51:51.591Z,13.97
2022-10-20T07:54:18.472Z,14.30
2022-10-20T07:56:46.304Z,13.67
2022-10-20T07:59:13.599Z,14.33
2022-10-20T08:01:40.910Z,13.77
2022-10-20T08:04:07.934Z,13.97
2022-10-20T08:06:34.812Z,12.90
2022-10-20T08:09:02.040Z,13.97
2022-10-20T08:11:29.102Z,13.13
2022-10-20T08:13:55.989Z,12.53
2022-10-20T08:19:24.202Z,13.27
2022-10-20T08:21:50.965Z,13.10
2022-10-20T08:24:17.835Z,13.10
2022-10-20T08:26:44.709Z,12.47
2022-10-20T08:29:12.411Z,13.23
2022-10-20T08:31:39.913Z,14.00
2022-10-20T08:34:07.141Z,14.83
2022-10-20T08:36:37.375Z,15.00
2022-10-20T08:39:06.236Z,14.37
2022-10-20T08:41:55.212Z,14.10
2022-10-20T08:44:34.556Z,13.00
2022-10-20T08:47:16.439Z,13.13
2022-10-20T08:49:45.800Z,12.90
2022-10-20T08:52:17.387Z,13.87
2022-10-20T08:54:44.498Z,13.20
2022-10-20T08:57:22.313Z,13.70
2022-10-20T08:59:52.449Z,12.90
2022-10-20T09:02:19.565Z,12.63
2022-10-20T09:04:51.887Z,12.43
2022-10-20T09:07:45.083Z,12.83
2022-10-20T09:10:26.428Z,12.60
2022-10-20T09:12:53.432Z,11.93
2022-10-20T09:15:21.463Z,12.60
2022-10-20T09:17:56.778Z,12.60
2022-10-20T09:20:26.137Z,11.03
2022-10-20T09:22:53.012Z,12.27
2022-10-20T09:25:25.240Z,12.13
2022-10-20T09:27:52.231Z,11.85
2022-10-20T09:30:34.503Z,12.23
2022-10-20T09:33:20.284Z,12.10
2022-10-20T09:35:48.910Z,12.17
2022-10-20T09:38:19.762Z,11.57
2022-10-20T09:40:58.201Z,11.55
2022-10-20T09:43:27.244Z,10.87
2022-10-20T09:45:58.582Z,11.47
2022-10-20T09:48:29.427Z,11.40
2022-10-20T09:50:58.806Z,10.73
2022-10-20T09:53:34.976Z,11.30
2022-10-20T09:56:02.120Z,11.97
2022-10-20T09:58:42.152Z,10.40
2022-10-20T10:01:12.401Z,11.07
2022-10-20T10:03:52.848Z,10.90
2022-10-20T10:06:38.012Z,11.10
2022-10-20T10:09:31.912Z,11.27
2022-10-20T10:12:01.722Z,11.13
2022-10-20T10:14:29.312Z,10.80
2022-10-20T10:16:56.626Z,10.77
2022-10-20T10:19:28.853Z,11.32
2022-10-20T10:21:58.496Z,10.90
2022-10-20T10:24:48.379Z,11.07
2022-10-20T10:27:28.545Z,10.70
2022-10-20T10:30:16.343Z,10.65
2022-10-20T10:32:47.739Z,11.23
2022-10-20T10:35:26.618Z,10.90
2022-10-20T10:37:54.572Z,10.32
2022-10-20T10:41:09.002Z,10.38
2022-10-20T10:43:48.783Z,11.07
2022-10-20T10:46:28.545Z,10.40
2022-10-20T10:48:58.288Z,10.38
2022-10-20T10:51:40.116Z,10.75
2022-10-20T10:54:30.311Z,10.30
2022-10-20T10:57:03.531Z,11.13
2022-10-20T10:59:35.894Z,11.05
2022-10-20T11:02:31.829Z,10.75
2022-10-20T11:05:20.421Z,11.43
2022-10-20T11:08:01.594Z,11.30
2022-10-20T11:10:45.378Z,11.10
2022-10-20T11:13:40.102Z,10.80
2022-10-20T11:16:09.741Z,11.20
2022-10-20T11:19:11.220Z,11.73
2022-10-20T11:21:53.326Z,11.27
2022-10-20T11:24:36.240Z,12.05
2022-10-20T11:27:16.823Z,11.48
2022-10-20T11:29:57.626Z,11.50
2022-10-20T11:32:45.725Z,11.95
2022-10-20T11:35:45.298Z,12.07
2022-10-20T11:38:25.673Z,11.27
2022-10-20T11:41:08.393Z,11.77
2022-10-20T11:43:46.263Z,12.30
2022-10-20T11:46:19.903Z,11.10
2022-10-20T11:48:51.126Z,11.98
2022-10-20T11:51:30.096Z,12.50
2022-10-20T11:53:59.822Z,11.65
2022-10-20T11:56:49.110Z,11.85
2022-10-20T11:59:25.101Z,11.63
2022-10-20T12:02:29.521Z,12.98
2022-10-20T12:05:19.600Z,12.43
2022-10-20T12:08:24.820Z,12.13
2022-10-20T12:10:51.338Z,11.77
2022-10-20T12:13:47.401Z,11.93
2022-10-20T12:16:51.964Z,12.07
2022-10-20T12:19:22.870Z,12.10
2022-10-20T12:22:05.573Z,11.27
2022-10-20T12:24:44.253Z,11.18
2022-10-20T12:27:11.063Z,11.35
2022-10-20T12:29:37.864Z,12.85
2022-10-20T12:32:29.025Z,12.13
2022-10-20T12:35:16.662Z,12.50
2022-10-20T12:37:55.844Z,12.15
2022-10-20T12:40:31.063Z,12.38
2022-10-20T12:42:59.141Z,12.05
2022-10-20T12:45:36.055Z,11.95
2022-10-20T12:48:04.422Z,12.45
2022-10-20T12:50:42.140Z,13.00
2022-10-20T12:53:18.150Z,12.55
2022-10-20T12:55:53.762Z,13.55
2022-10-20T12:58:20.550Z,13.45
2022-10-20T13:00:47.333Z,13.50
2022-10-20T13:03:32.453Z,13.57
2022-10-20T13:06:00.363Z,12.95
2022-10-20T13:08:33.570Z,13.50
2022-10-20T13:11:38.197Z,13.20
2022-10-20T13:14:27.061Z,13.85
2022-10-20T13:17:15.806Z,13.57
2022-10-20T13:20:01.344Z,13.98
2022-10-20T13:22:51.273Z,14.10
2022-10-20T13:25:53.382Z,13.07
2022-10-20T13:28:24.170Z,13.88
2022-10-20T13:30:59.333Z,12.90
2022-10-20T13:34:03.339Z,13.45
2022-10-20T13:36:50.224Z,15.23
2022-10-20T13:39:52.040Z,15.25
2022-10-20T13:42:50.641Z,17.67
2022-10-20T13:45:35.757Z,18.73
2022-10-20T13:48:31.595Z,18.58
2022-10-20T13:51:18.372Z,19.80
2022-10-20T13:53:51.278Z,20.25
2022-10-20T13:56:18.116Z,20.05
2022-10-20T13:59:04.524Z,22.83
2022-10-20T14:01:35.174Z,23.40
2022-10-20T14:04:02.207Z,24.30
2022-10-20T14:06:37.617Z,23.83
2022-10-20T14:09:18.287Z,24.63
2022-10-20T14:11:53.221Z,25.73
2022-10-20T14:14:26.169Z,25.10
2022-10-20T14:17:05.955Z,24.70
2022-10-20T14:19:33.842Z,25.50
2022-10-20T14:22:15.628Z,24.88
2022-10-20T14:24:48.391Z,25.63
2022-10-20T14:27:33.412Z,25.48
2022-10-20T14:30:03.031Z,25.73
2022-10-20T14:32:32.053Z,26.45
2022-10-20T14:35:01.478Z,26.48
2022-10-20T14:37:35.658Z,27.60
2022-10-20T14:40:06.275Z,28.15
2022-10-20T14:42:33.741Z,28.25
2022-10-20T14:45:03.111Z,30.80
2022-10-20T14:47:39.145Z,29.08
2022-10-20T14:50:06.764Z,32.28
2022-10-20T14:52:38.744Z,32.55
2022-10-20T14:55:35.210Z,31.17
2022-10-20T14:58:02.700Z,31.00
2022-10-20T15:00:36.006Z,31.80
2022-10-20T15:03:07.148Z,31.45
2022-10-20T15:05:45.242Z,34.20
2022-10-20T15:08:24.847Z,34.05
2022-10-20T15:10:52.161Z,34.90
2022-10-20T15:13:25.038Z,32.63
2022-10-20T15:15:55.099Z,32.28
2022-10-20T15:18:24.023Z,33.95
2022-10-20T15:20:52.680Z,35.13
2022-10-20T15:23:26.881Z,35.17
2022-10-20T15:26:09.534Z,33.75
2022-10-20T15:28:44.199Z,35.25
2022-10-20T15:31:14.101Z,33.03
2022-10-20T15:33:41.640Z,35.13
2022-10-20T15:36:32.909Z,33.70
2022-10-20T15:39:00.777Z,33.55
2022-10-20T15:41:33.338Z,34.55
2022-10-20T15:44:14.275Z,34.95
2022-10-20T15:46:46.859Z,35.40
2022-10-20T15:49:14.200Z,35.60
2022-10-20T15:51:43.956Z,35.28
2022-10-20T15:54:16.107Z,33.95
2022-10-20T15:56:43.735Z,35.42
2022-10-20T15:59:10.756Z,35.70
2022-10-20T16:01:38.235Z,36.72
2022-10-20T16:04:18.930Z,36.90
2022-10-20T16:06:45.935Z,35.88
2022-10-20T16:09:15.778Z,36.47
2022-10-20T16:11:43.603Z,36.40
2022-10-20T16:14:10.718Z,36.70
2022-10-20T16:16:37.557Z,36.55
2022-10-20T16:19:05.145Z,37.10
2022-10-20T16:21:33.242Z,37.90
2022-10-20T16:24:01.122Z,38.78
2022-10-20T16:26:28.267Z,37.97
2022-10-20T16:28:55.118Z,39.40
2022-10-20T16:31:22.002Z,38.60
2022-10-20T16:33:48.943Z,38.83
2022-10-20T16:36:21.698Z,38.70
2022-10-20T16:38:48.601Z,40.05
2022-10-20T16:41:16.105Z,37.38
2022-10-20T16:43:45.308Z,40.92
2022-10-20T16:46:14.558Z,43.50
2022-10-20T16:48:43.838Z,37.40
2022-10-20T16:51:15.156Z,38.22
2022-10-20T16:53:42.437Z,42.15
2022-10-20T16:56:09.455Z,39.90
2022-10-20T16:58:36.341Z,43.05
2022-10-20T17:01:06.570Z,43.63
2022-10-20T17:03:33.918Z,40.70
2022-10-20T17:06:04.198Z,36.42
2022-10-20T17:08:32.075Z,38.60
2022-10-20T17:11:00.981Z,39.00
2022-10-20T17:13:29.428Z,41.10
2022-10-20T17:15:56.774Z,38.95
2022-10-20T17:18:24.119Z,40.33
2022-10-20T17:20:55.098Z,38.75
2022-10-20T17:23:23.024Z,38.40
2022-10-20T17:25:51.509Z,39.90
2022-10-20T17:28:18.350Z,39.83
2022-10-20T17:30:47.058Z,39.75
2022-10-20T17:33:14.172Z,39.42
2022-10-20T17:35:41.143Z,39.53
2022-10-20T17:38:08.025Z,42.03
2022-10-20T17:40:38.304Z,41.03
2022-10-20T17:43:05.475Z,40.42
2022-10-20T17:45:34.960Z,40.92
2022-10-20T17:48:04.982Z,41.55
2022-10-20T17:50:31.866Z,42.50
2022-10-20T17:53:02.241Z,43.42
2022-10-20T17:55:29.730Z,42.35
2022-10-20T17:57:56.648Z,43.38
2022-10-20T18:00:37.755Z,41.10
2022-10-20T18:03:10.402Z,40.50
2022-10-20T18:05:37.242Z,44.33
2022-10-20T18:08:04.150Z,43.03
2022-10-20T18:10:30.961Z,43.25
2022-10-20T18:12:58.285Z,40.80
2022-10-20T18:15:25.116Z,41.92
2022-10-20T18:17:51.925Z,42.58
2022-10-20T18:20:18.814Z,43.38
2022-10-20T18:22:45.609Z,45.47
2022-10-20T18:25:12.646Z,44.35
2022-10-20T18:27:39.543Z,44.88
2022-10-20T18:30:08.494Z,45.17
2022-10-20T18:32:36.582Z,41.75
2022-10-20T18:35:03.875Z,41.55
2022-10-20T18:37:30.750Z,44.45
2022-10-20T18:39:57.563Z,42.97
2022-10-20T18:42:24.486Z,44.78
2022-10-20T18:44:51.304Z,44.42
2022-10-20T18:47:18.171Z,44.63
2022-10-20T18:49:45.034Z,41.58
2022-10-20T18:52:12.183Z,42.53
2022-10-20T18:54:39.587Z,41.63
2022-10-20T18:57:06.494Z,42.60
2022-10-20T18:59:33.324Z,42.03
2022-10-20T19:02:00.107Z,42.00
2022-10-20T19:04:27.031Z,42.40
2022-10-20T19:06:53.969Z,42.78
2022-10-20T19:09:21.693Z,43.75
2022-10-20T19:14:17.572Z,41.42
2022-10-20T19:16:47.029Z,44.35
2022-10-20T19:19:14.041Z,44.28
2022-10-20T19:21:41.092Z,43.60
2022-10-20T19:24:14.596Z,46.63
2022-10-20T19:26:52.467Z,45.80
2022-10-20T19:29:29.703Z,45.83
2022-10-20T19:31:59.534Z,44.65
2022-10-20T19:34:30.563Z,46.25
2022-10-20T19:36:58.295Z,47.58
2022-10-20T19:39:32.578Z,45.85
2022-10-20T19:42:01.243Z,47.03
2022-10-20T19:44:28.618Z,46.70
2022-10-20T19:46:56.601Z,45.88
2022-10-20T19:49:24.351Z,45.30
2022-10-20T19:51:51.728Z,41.35
2022-10-20T19:54:18.942Z,44.22
2022-10-20T19:56:45.814Z,44.65
2022-10-20T19:59:12.733Z,48.97
2022-10-20T20:01:39.777Z,47.90
2022-10-20T20:04:07.003Z,47.55
2022-10-20T20:06:34.782Z,49.85
2022-10-20T20:09:05.177Z,47.15
2022-10-20T20:11:32.363Z,47.45
2022-10-20T20:14:08.132Z,49.22
2022-10-20T20:16:35.301Z,50.33
2022-10-20T20:19:02.487Z,49.65
2022-10-20T20:21:30.537Z,50.33
2022-10-20T20:24:02.198Z,51.67
2022-10-20T20:26:31.282Z,50.35
2022-10-20T20:28:59.071Z,51.33
2022-10-20T20:31:27.504Z,51.00
2022-10-20T20:33:56.639Z,50.08
2022-10-20T20:36:26.187Z,51.33
2022-10-20T20:38:55.122Z,49.53
2022-10-20T20:41:26.024Z,52.53
2022-10-20T20:43:52.856Z,52.65
2022-10-20T20:46:22.687Z,54.05
2022-10-20T20:48:50.601Z,54.72
2022-10-20T20:51:17.594Z,54.30
2022-10-20T20:53:44.413Z,52.78
2022-10-20T20:56:13.755Z,49.15
2022-10-20T20:58:41.964Z,52.28
2022-10-20T21:01:13.396Z,50.97
2022-10-20T21:03:40.293Z,50.45
2022-10-20T21:06:09.243Z,48.88
2022-10-20T21:08:38.314Z,52.03
2022-10-20T21:11:13.354Z,51.75
2022-10-20T21:13:41.679Z,50.88
2022-10-20T21:16:14.497Z,50.60
2022-10-20T21:18:43.818Z,49.90
2022-10-20T21:21:13.689Z,47.13
2022-10-20T21:23:41.040Z,48.65
2022-10-20T21:26:09.764Z,52.55
2022-10-20T21:28:37.036Z,53.75
2022-10-20T21:31:08.731Z,53.30
2022-10-20T21:33:36.975Z,52.95
2022-10-20T21:36:06.595Z,55.80
2022-10-20T21:38:35.982Z,55.97
2022-10-20T21:41:08.918Z,55.33
2022-10-20T21:43:37.706Z,51.92
2022-10-20T21:46:10.058Z,52.55
2022-10-20T21:51:19.892Z,55.42
2022-10-20T21:53:47.128Z,53.03
2022-10-20T21:56:14.754Z,54.95
2022-10-20T21:58:41.702Z,53.53
2022-10-20T22:01:26.274Z,54.03
2022-10-20T22:03:54.236Z,54.88
2022-10-20T22:06:24.222Z,54.30
2022-10-20T22:08:54.463Z,55.40
2022-10-20T22:11:26.951Z,51.55
2022-10-20T22:13:54.473Z,54.30
2022-10-20T22:16:24.105Z,53.88
2022-10-20T22:19:01.741Z,52.28
2022-10-20T22:21:29.629Z,52.30
2022-10-20T22:23:58.515Z,52.03
2022-10-20T22:26:26.991Z,52.60
2022-10-20T22:28:54.555Z,54.45
2022-10-20T22:31:23.132Z,54.75
2022-10-20T22:33:55.404Z,53.65
2022-10-20T22:36:23.330Z,54.42
2022-10-20T22:38:50.089Z,52.10
2022-10-20T22:41:17.154Z,53.88
2022-10-20T22:43:43.966Z,55.83
2022-10-20T22:46:10.789Z,55.65
2022-10-20T22:48:37.629Z,56.20
2022-10-20T22:51:06.204Z,56.95
2022-10-20T22:53:33.010Z,56.28
2022-10-20T22:56:12.041Z,54.63
2022-10-20T22:58:39.000Z,57.88
2022-10-20T23:01:10.376Z,56.70
2022-10-20T23:03:38.138Z,56.75
2022-10-20T23:06:14.331Z,55.50
2022-10-20T23:08:43.593Z,56.40
2022-10-20T23:11:11.330Z,55.08
2022-10-20T23:13:38.189Z,56.03
2022-10-20T23:16:05.262Z,55.70
2022-10-20T23:18:32.128Z,55.33
2022-10-20T23:20:58.898Z,55.83
2022-10-20T23:23:26.212Z,54.30
2022-10-20T23:25:53.312Z,55.00
2022-10-20T23:28:20.406Z,57.17
2022-10-20T23:30:47.739Z,57.40
2022-10-20T23:33:14.600Z,57.03
2022-10-20T23:35:41.338Z,58.00
2022-10-20T23:38:09.614Z,56.97
2022-10-20T23:40:37.878Z,55.55
2022-10-20T23:43:04.926Z,55.17
2022-10-20T23:45:34.117Z,55.78
2022-10-20T23:48:03.840Z,55.03
2022-10-20T23:50:30.659Z,55.40
2022-10-20T23:52:57.426Z,51.50
2022-10-20T23:55:24.189Z,50.92
2022-10-20T23:57:51.272Z,54.08
